createdAt,value
2022-08-01T00:01:59.117Z,100.00
2022-08-01T00:04:34.712Z,100.00
2022-08-01T00:07:02.918Z,100.00
2022-08-01T00:09:38.725Z,100.00
2022-08-01T00:12:11.878Z,100.00
2022-08-01T00:14:44.328Z,100.00
2022-08-01T00:17:15.390Z,100.00
2022-08-01T00:19:45.865Z,100.00
2022-08-01T00:22:17.075Z,100.00
2022-08-01T00:24:46.428Z,100.00
2022-08-01T00:27:18.520Z,100.00
2022-08-01T00:30:11.506Z,100.00
2022-08-01T00:32:39.136Z,100.00
2022-08-01T00:35:10.338Z,100.00
2022-08-01T00:37:40.258Z,100.00
2022-08-01T00:40:09.600Z,100.00
2022-08-01T00:42:41.634Z,100.00
2022-08-01T00:45:13.749Z,100.00
2022-08-01T00:47:41.989Z,100.00
2022-08-01T00:50:20.280Z,100.00
2022-08-01T00:52:51.649Z,100.00
2022-08-01T00:55:21.081Z,100.00
2022-08-01T00:58:05.274Z,100.00
2022-08-01T01:00:53.625Z,100.00
2022-08-01T01:03:56.308Z,100.00
2022-08-01T01:07:13.837Z,100.00
2022-08-01T01:09:49.113Z,100.00
2022-08-01T01:12:22.827Z,100.00
2022-08-01T01:15:02.789Z,100.00
2022-08-01T01:17:50.066Z,100.00
2022-08-01T01:20:21.708Z,100.00
2022-08-01T01:23:18.945Z,100.00
2022-08-01T01:26:07.437Z,100.00
2022-08-01T01:28:55.338Z,100.00
2022-08-01T01:31:24.422Z,100.00
2022-08-01T01:33:55.427Z,100.00
2022-08-01T01:36:30.749Z,100.00
2022-08-01T01:39:04.960Z,100.00
2022-08-01T01:41:42.888Z,100.00
2022-08-01T01:44:14.475Z,100.00
2022-08-01T01:46:46.285Z,100.00
2022-08-01T01:49:17.746Z,100.00
2022-08-01T01:52:02.813Z,100.00
2022-08-01T01:54:39.553Z,100.00
2022-08-01T01:57:12.694Z,100.00
2022-08-01T01:59:44.184Z,100.00
2022-08-01T02:02:14.816Z,100.00
2022-08-01T02:04:49.760Z,100.00
2022-08-01T02:07:23.145Z,100.00
2022-08-01T02:09:56.199Z,100.00
2022-08-01T02:12:30.273Z,100.00
2022-08-01T02:15:08.500Z,100.00
2022-08-01T02:17:40.564Z,100.00
2022-08-01T02:20:12.563Z,100.00
2022-08-01T02:22:45.153Z,100.00
2022-08-01T02:25:18.939Z,100.00
2022-08-01T02:27:52.831Z,100.00
2022-08-01T02:30:23.097Z,100.00
2022-08-01T02:32:56.585Z,100.00
2022-08-01T02:35:31.536Z,100.00
2022-08-01T02:38:01.456Z,100.00
2022-08-01T02:40:33.930Z,100.00
2022-08-01T02:43:16.046Z,100.00
2022-08-01T02:45:59.371Z,100.00
2022-08-01T02:48:31.246Z,100.00
2022-08-01T02:51:03.355Z,100.00
2022-08-01T02:53:44.728Z,100.00
2022-08-01T02:56:16.184Z,100.00
2022-08-01T02:58:44.983Z,100.00
2022-08-01T03:01:21.566Z,100.00
2022-08-01T03:03:53.324Z,100.00
2022-08-01T03:06:26.412Z,100.00
2022-08-01T03:09:00.465Z,100.00
2022-08-01T03:11:30.816Z,100.00
2022-08-01T03:14:03.362Z,100.00
2022-08-01T03:16:36.339Z,100.00
2022-08-01T03:19:06.487Z,100.00
2022-08-01T03:21:35.691Z,100.00
2022-08-01T03:24:07.956Z,100.00
2022-08-01T03:26:37.605Z,100.00
2022-08-01T03:29:08.807Z,100.00
2022-08-01T03:31:43.947Z,100.00
2022-08-01T03:34:12.337Z,100.00
2022-08-01T03:36:50.161Z,100.00
2022-08-01T03:39:26.571Z,100.00
2022-08-01T03:41:59.857Z,100.00
2022-08-01T03:44:31.300Z,100.00
2022-08-01T03:47:03.017Z,100.00
2022-08-01T03:49:37.450Z,100.00
2022-08-01T03:52:08.560Z,100.00
2022-08-01T03:54:39.250Z,100.00
2022-08-01T03:57:35.731Z,100.00
2022-08-01T04:00:01.430Z,100.00
2022-08-01T04:02:31.606Z,100.00
2022-08-01T04:05:01.744Z,100.00
2022-08-01T04:07:31.337Z,100.00
2022-08-01T04:10:01.391Z,100.00
2022-08-01T04:12:29.795Z,100.00
2022-08-01T04:14:58.095Z,100.00
2022-08-01T04:17:29.012Z,100.00
2022-08-01T04:20:04.446Z,100.00
2022-08-01T04:22:37.255Z,100.00
2022-08-01T04:25:12.491Z,100.00
2022-08-01T04:27:51.152Z,100.00
2022-08-01T04:30:22.496Z,100.00
2022-08-01T04:32:52.897Z,100.00
2022-08-01T04:36:03.994Z,100.00
2022-08-01T04:38:18.202Z,100.00
2022-08-01T04:40:47.667Z,100.00
2022-08-01T04:43:16.097Z,100.00
2022-08-01T04:45:45.987Z,100.00
2022-08-01T04:48:17.666Z,100.00
2022-08-01T04:50:47.802Z,100.00
2022-08-01T04:53:18.609Z,100.00
2022-08-01T04:55:49.178Z,100.00
2022-08-01T04:58:20.782Z,100.00
2022-08-01T05:00:51.492Z,100.00
2022-08-01T05:03:20.165Z,100.00
2022-08-01T05:05:52.105Z,100.00
2022-08-01T05:08:21.936Z,100.00
2022-08-01T05:10:50.437Z,100.00
2022-08-01T05:13:18.980Z,100.00
2022-08-01T05:15:47.603Z,100.00
2022-08-01T05:18:15.947Z,100.00
2022-08-01T05:20:49.045Z,100.00
2022-08-01T05:48:08.908Z,100.00
2022-08-01T05:50:37.308Z,100.00
2022-08-01T05:53:05.806Z,100.00
2022-08-01T05:55:35.675Z,100.00
2022-08-01T05:58:04.209Z,100.00
2022-08-01T06:00:32.629Z,100.00
2022-08-01T06:03:01.208Z,100.00
2022-08-01T06:05:29.628Z,100.00
2022-08-01T06:07:59.337Z,100.00
2022-08-01T06:10:27.821Z,100.00
2022-08-01T06:12:57.838Z,100.00
2022-08-01T06:15:26.219Z,100.00
2022-08-01T06:17:54.660Z,100.00
2022-08-01T06:20:23.095Z,100.00
2022-08-01T06:22:52.840Z,100.00
2022-08-01T06:25:21.633Z,100.00
2022-08-01T06:27:50.828Z,100.00
2022-08-01T06:30:22.319Z,100.00
2022-08-01T06:32:50.700Z,100.00
2022-08-01T06:35:19.220Z,100.00
2022-08-01T06:37:48.093Z,100.00
2022-08-01T06:40:17.529Z,100.00
2022-08-01T06:42:46.958Z,100.00
2022-08-01T06:45:16.170Z,100.00
2022-08-01T06:47:50.590Z,100.00
2022-08-01T06:50:19.572Z,100.00
2022-08-01T06:52:48.147Z,100.00
2022-08-01T06:55:16.898Z,100.00
2022-08-01T06:57:49.460Z,100.00
2022-08-01T07:00:20.076Z,100.00
2022-08-01T07:02:49.988Z,100.00
2022-08-01T07:05:18.458Z,100.00
2022-08-01T07:07:46.787Z,100.00
2022-08-01T07:10:15.267Z,100.00
2022-08-01T07:12:43.637Z,100.00
2022-08-01T07:15:12.947Z,100.00
2022-08-01T07:17:41.976Z,100.00
2022-08-01T07:20:16.542Z,100.00
2022-08-01T07:22:47.617Z,99.76
2022-08-01T07:25:17.147Z,99.28
2022-08-01T07:27:45.934Z,98.98
2022-08-01T07:30:15.109Z,100.00
2022-08-01T07:32:43.518Z,100.00
2022-08-01T07:35:21.677Z,100.00
2022-08-01T07:37:50.037Z,100.00
2022-08-01T07:40:20.099Z,100.00
2022-08-01T07:42:48.681Z,95.04
2022-08-01T07:45:17.464Z,92.90
2022-08-01T07:47:46.590Z,97.18
2022-08-01T07:50:16.527Z,99.33
2022-08-01T07:52:45.035Z,100.00
2022-08-01T07:55:16.588Z,100.00
2022-08-01T07:57:45.357Z,98.28
2022-08-01T08:00:14.919Z,98.74
2022-08-01T08:02:43.512Z,99.25
2022-08-01T08:05:12.848Z,98.98
2022-08-01T08:07:43.155Z,93.78
2022-08-01T08:10:12.164Z,93.25
2022-08-01T08:12:40.619Z,91.80
2022-08-01T08:15:09.901Z,92.47
2022-08-01T08:17:38.333Z,91.57
2022-08-01T08:20:09.280Z,91.89
2022-08-01T08:22:39.022Z,87.85
2022-08-01T08:25:10.477Z,84.95
2022-08-01T08:27:40.644Z,81.82
2022-08-01T08:30:10.238Z,79.97
2022-08-01T08:32:39.010Z,85.05
2022-08-01T08:35:08.368Z,81.43
2022-08-01T08:37:47.413Z,75.12
2022-08-01T08:40:18.692Z,74.08
2022-08-01T08:42:47.591Z,76.38
2022-08-01T08:45:15.957Z,77.58
2022-08-01T08:47:44.697Z,80.47
2022-08-01T08:50:13.345Z,80.87
2022-08-01T08:52:42.347Z,79.64
2022-08-01T08:55:12.100Z,72.01
2022-08-01T08:57:45.075Z,69.05
2022-08-01T09:00:14.548Z,74.02
2022-08-01T09:02:44.887Z,64.74
2022-08-01T09:05:18.921Z,60.23
2022-08-01T09:07:48.083Z,60.40
2022-08-01T09:10:16.540Z,63.53
2022-08-01T09:13:12.113Z,59.42
2022-08-01T09:15:42.236Z,56.08
2022-08-01T09:18:11.116Z,56.25
2022-08-01T09:20:39.679Z,56.68
2022-08-01T09:23:08.068Z,59.62
2022-08-01T09:25:56.766Z,61.90
2022-08-01T09:28:32.357Z,60.47
2022-08-01T09:31:01.246Z,57.40
2022-08-01T09:33:50.713Z,54.26
2022-08-01T09:36:21.217Z,54.66
2022-08-01T09:38:50.888Z,55.35
2022-08-01T09:41:19.948Z,58.76
2022-08-01T09:43:54.358Z,58.29
2022-08-01T09:46:22.886Z,57.70
2022-08-01T09:48:59.417Z,57.46
2022-08-01T09:51:58.851Z,53.59
2022-08-01T09:54:30.995Z,52.21
2022-08-01T09:57:11.436Z,57.18
2022-08-01T09:59:57.953Z,60.57
2022-08-01T10:02:33.048Z,63.16
2022-08-01T10:05:08.420Z,63.33
2022-08-01T10:07:42.992Z,64.71
2022-08-01T10:10:14.652Z,63.18
2022-08-01T10:12:45.402Z,62.46
2022-08-01T10:15:17.804Z,57.33
2022-08-01T10:17:57.370Z,54.86
2022-08-01T10:20:30.994Z,55.60
2022-08-01T10:23:05.794Z,55.40
2022-08-01T10:25:43.012Z,53.77
2022-08-01T10:28:21.379Z,51.53
2022-08-01T10:30:52.076Z,51.63
2022-08-01T10:33:52.440Z,53.12
2022-08-01T10:36:12.924Z,52.22
2022-08-01T10:38:42.138Z,50.97
2022-08-01T10:41:11.315Z,52.29
2022-08-01T10:43:39.841Z,57.15
2022-08-01T10:46:15.470Z,60.75
2022-08-01T10:48:49.671Z,62.92
2022-08-01T10:51:51.100Z,61.68
2022-08-01T10:54:12.899Z,56.16
2022-08-01T10:56:43.170Z,58.93
2022-08-01T10:59:12.126Z,58.18
2022-08-01T11:01:45.249Z,56.32
2022-08-01T11:04:18.414Z,55.07
2022-08-01T11:07:06.013Z,56.99
2022-08-01T11:09:41.920Z,57.73
2022-08-01T11:12:13.549Z,55.80
2022-08-01T11:15:30.023Z,57.66
2022-08-01T11:18:01.928Z,58.56
2022-08-01T11:20:32.799Z,56.20
2022-08-01T11:23:36.151Z,53.16
2022-08-01T11:26:12.905Z,48.27
2022-08-01T11:28:59.441Z,45.18
2022-08-01T11:31:37.295Z,44.59
2022-08-01T11:34:08.395Z,43.50
2022-08-01T11:36:58.094Z,45.19
2022-08-01T11:39:25.318Z,44.79
2022-08-01T11:41:55.790Z,47.93
2022-08-01T11:44:26.962Z,49.29
2022-08-01T11:47:01.425Z,51.06
2022-08-01T11:49:49.650Z,49.05
2022-08-01T11:52:20.453Z,48.19
2022-08-01T11:54:50.503Z,49.25
2022-08-01T11:57:22.924Z,48.47
2022-08-01T12:00:03.646Z,47.40
2022-08-01T12:02:35.237Z,47.30
2022-08-01T12:05:08.633Z,46.58
2022-08-01T12:07:42.038Z,46.89
2022-08-01T12:10:12.002Z,46.31
2022-08-01T12:12:45.910Z,45.47
2022-08-01T12:15:15.607Z,44.77
2022-08-01T12:17:57.412Z,44.72
2022-08-01T12:20:31.600Z,46.76
2022-08-01T12:23:02.309Z,46.27
2022-08-01T12:25:31.098Z,43.96
2022-08-01T12:28:02.883Z,44.17
2022-08-01T12:30:36.572Z,44.71
2022-08-01T12:33:06.540Z,43.57
2022-08-01T12:35:37.726Z,44.10
2022-08-01T12:38:08.597Z,42.85
2022-08-01T12:40:43.326Z,42.40
2022-08-01T12:43:28.110Z,42.34
2022-08-01T12:45:59.685Z,41.10
2022-08-01T12:48:28.724Z,39.21
2022-08-01T12:51:01.694Z,41.09
2022-08-01T12:53:40.220Z,43.33
2022-08-01T12:56:10.937Z,44.47
2022-08-01T12:58:39.458Z,45.31
2022-08-01T13:01:09.427Z,45.17
2022-08-01T13:03:38.397Z,44.57
2022-08-01T13:06:16.473Z,43.85
2022-08-01T13:08:46.282Z,38.19
2022-08-01T13:11:17.574Z,38.86
2022-08-01T13:13:48.591Z,33.54
2022-08-01T13:16:31.131Z,31.79
2022-08-01T13:19:03.342Z,27.18
2022-08-01T13:21:52.270Z,24.22
2022-08-01T13:24:26.899Z,20.88
2022-08-01T13:26:59.950Z,21.49
2022-08-01T13:29:35.447Z,19.18
2022-08-01T13:32:27.872Z,18.67
2022-08-01T13:35:03.640Z,20.50
2022-08-01T13:37:33.551Z,19.46
2022-08-01T13:40:02.004Z,17.60
2022-08-01T13:42:31.711Z,18.90
2022-08-01T13:45:00.390Z,20.20
2022-08-01T13:47:31.678Z,17.87
2022-08-01T13:50:03.477Z,17.21
2022-08-01T13:52:33.889Z,17.97
2022-08-01T13:55:05.153Z,17.62
2022-08-01T13:57:39.766Z,18.35
2022-08-01T14:00:11.049Z,18.41
2022-08-01T14:02:40.373Z,21.08
2022-08-01T14:05:09.361Z,22.98
2022-08-01T14:07:39.017Z,20.89
2022-08-01T14:10:19.961Z,20.48
2022-08-01T14:12:49.054Z,25.02
2022-08-01T14:15:18.224Z,27.03
2022-08-01T14:18:06.271Z,29.37
2022-08-01T14:20:34.782Z,27.26
2022-08-01T14:23:04.575Z,25.25
2022-08-01T14:26:00.634Z,25.77
2022-08-01T14:28:26.643Z,21.11
2022-08-01T14:30:56.597Z,19.12
2022-08-01T14:33:24.964Z,23.65
2022-08-01T14:36:06.234Z,27.63
2022-08-01T14:38:42.847Z,30.84
2022-08-01T14:41:14.975Z,31.42
2022-08-01T14:43:43.294Z,27.38
2022-08-01T14:46:17.143Z,27.53
2022-08-01T14:48:56.405Z,24.23
2022-08-01T14:51:44.964Z,21.52
2022-08-01T14:54:29.283Z,21.76
2022-08-01T14:56:57.784Z,20.82
2022-08-01T14:59:27.586Z,24.10
2022-08-01T15:01:55.907Z,26.38
2022-08-01T15:04:24.227Z,24.98
2022-08-01T15:06:52.480Z,23.39
2022-08-01T15:09:22.202Z,21.21
2022-08-01T15:11:50.409Z,20.07
2022-08-01T15:14:34.968Z,20.37
2022-08-01T15:17:03.169Z,21.16
2022-08-01T15:19:31.729Z,20.79
2022-08-01T15:22:03.225Z,22.64
2022-08-01T15:24:45.752Z,25.80
2022-08-01T15:30:23.463Z,24.84
2022-08-01T15:32:59.173Z,26.76
2022-08-01T15:35:27.417Z,23.52
2022-08-01T15:37:55.737Z,25.47
2022-08-01T15:40:25.588Z,27.05
2022-08-01T15:43:20.835Z,30.48
2022-08-01T15:45:49.361Z,32.14
2022-08-01T15:52:03.815Z,33.59
2022-08-01T15:57:43.738Z,35.19
2022-08-01T16:00:18.989Z,35.89
2022-08-01T16:02:47.415Z,36.95
2022-08-01T16:05:30.509Z,37.48
2022-08-01T16:08:01.742Z,37.73
2022-08-01T16:10:59.585Z,38.81
2022-08-01T16:16:36.008Z,39.22
2022-08-01T16:19:05.453Z,38.68
2022-08-01T16:21:33.727Z,39.71
2022-08-01T16:24:15.427Z,39.89
2022-08-01T16:26:43.679Z,40.64
2022-08-01T16:29:13.318Z,41.03
2022-08-01T16:31:42.667Z,40.39
2022-08-01T16:34:29.987Z,40.60
2022-08-01T16:36:58.810Z,40.90
2022-08-01T16:39:35.135Z,40.47
2022-08-01T16:42:03.525Z,40.32
2022-08-01T16:44:38.166Z,40.40
2022-08-01T16:47:09.939Z,41.32
2022-08-01T16:49:38.526Z,41.90
2022-08-01T16:52:07.526Z,42.03
2022-08-01T16:54:37.539Z,53.79
2022-08-01T16:57:07.730Z,52.39
2022-08-01T16:59:41.367Z,55.62
2022-08-01T17:02:10.614Z,54.29
2022-08-01T17:04:40.945Z,52.21
2022-08-01T17:07:09.614Z,51.99
2022-08-01T17:09:42.968Z,51.31
2022-08-01T17:12:22.073Z,51.86
2022-08-01T17:14:52.268Z,51.97
2022-08-01T17:17:20.968Z,58.17
2022-08-01T17:19:52.979Z,58.21
2022-08-01T17:22:21.406Z,59.24
2022-08-01T17:24:52.450Z,58.85
2022-08-01T17:27:24.892Z,58.30
2022-08-01T17:30:00.466Z,60.42
2022-08-01T17:32:29.348Z,59.08
2022-08-01T17:35:02.034Z,62.44
2022-08-01T17:37:31.497Z,57.88
2022-08-01T17:40:37.542Z,59.42
2022-08-01T17:42:55.373Z,58.39
2022-08-01T17:45:28.366Z,59.56
2022-08-01T17:48:05.200Z,60.87
2022-08-01T17:50:36.680Z,62.32
2022-08-01T17:53:09.787Z,66.96
2022-08-01T17:55:55.333Z,67.88
2022-08-01T17:58:50.341Z,68.02
2022-08-01T18:01:19.344Z,69.13
2022-08-01T18:03:48.141Z,73.80
2022-08-01T18:06:24.933Z,76.80
2022-08-01T18:08:56.710Z,77.80
2022-08-01T18:11:37.395Z,76.73
2022-08-01T18:14:07.553Z,78.72
2022-08-01T18:16:45.013Z,80.07
2022-08-01T18:19:21.497Z,82.05
2022-08-01T18:21:49.975Z,81.97
2022-08-01T18:24:25.073Z,83.81
2022-08-01T18:26:54.545Z,85.10
2022-08-01T18:29:47.513Z,85.00
2022-08-01T18:32:13.517Z,84.77
2022-08-01T18:34:42.276Z,90.72
2022-08-01T18:37:14.816Z,92.79
2022-08-01T18:39:46.123Z,91.14
2022-08-01T18:42:22.129Z,95.34
2022-08-01T18:44:53.109Z,91.83
2022-08-01T18:47:24.760Z,97.26
2022-08-01T18:49:54.753Z,94.49
2022-08-01T18:52:28.494Z,96.24
2022-08-01T18:55:02.096Z,98.88
2022-08-01T18:57:30.317Z,97.75
2022-08-01T18:59:58.980Z,96.81
2022-08-01T19:02:28.637Z,97.61
2022-08-01T19:04:56.915Z,99.21
2022-08-01T19:07:53.615Z,100.00
2022-08-01T19:10:17.196Z,100.00
2022-08-01T19:12:45.663Z,100.00
2022-08-01T19:15:15.100Z,100.00
2022-08-01T19:17:47.283Z,100.00
2022-08-01T19:20:15.552Z,100.00
2022-08-01T19:22:46.830Z,100.00
2022-08-01T19:25:15.717Z,100.00
2022-08-01T19:27:51.164Z,100.00
2022-08-01T19:30:20.486Z,100.00
2022-08-01T19:32:50.254Z,100.00
2022-08-01T19:35:18.787Z,100.00
2022-08-01T19:37:47.882Z,100.00
2022-08-01T19:40:27.353Z,100.00
2022-08-01T19:42:57.212Z,100.00
2022-08-01T19:45:26.705Z,100.00
2022-08-01T19:47:59.474Z,100.00
2022-08-01T19:50:29.700Z,100.00
2022-08-01T19:53:02.452Z,100.00
2022-08-01T19:55:39.024Z,100.00
2022-08-01T19:58:27.471Z,100.00
2022-08-01T20:00:56.781Z,100.00
2022-08-01T20:03:29.426Z,100.00
2022-08-01T20:05:58.327Z,100.00
2022-08-01T20:08:28.525Z,100.00
2022-08-01T20:10:57.720Z,100.00
2022-08-01T20:13:26.464Z,100.00
2022-08-01T20:16:12.267Z,100.00
2022-08-01T20:18:44.995Z,100.00
2022-08-01T20:21:16.444Z,100.00
2022-08-01T20:23:47.725Z,100.00
2022-08-01T20:26:18.325Z,100.00
2022-08-01T20:28:48.840Z,100.00
2022-08-01T20:31:23.995Z,100.00
2022-08-01T20:33:55.516Z,100.00
2022-08-01T20:36:28.490Z,100.00
2022-08-01T20:38:58.343Z,100.00
2022-08-01T20:41:30.017Z,100.00
2022-08-01T20:44:02.177Z,100.00
2022-08-01T20:46:30.909Z,100.00
2022-08-01T20:49:03.337Z,100.00
2022-08-01T20:51:32.046Z,100.00
2022-08-01T20:54:00.649Z,100.00
2022-08-01T20:56:43.530Z,100.00
2022-08-01T20:59:39.473Z,100.00
2022-08-01T21:02:09.648Z,100.00
2022-08-01T21:04:50.049Z,100.00
2022-08-01T21:07:25.637Z,100.00
2022-08-01T21:10:07.734Z,100.00
2022-08-01T21:12:45.088Z,100.00
2022-08-01T21:15:27.770Z,100.00
2022-08-01T21:18:01.114Z,100.00
2022-08-01T21:20:33.263Z,100.00
2022-08-01T21:23:21.114Z,100.00
2022-08-01T21:25:54.510Z,100.00
2022-08-01T21:28:25.786Z,100.00
2022-08-01T21:31:00.128Z,100.00
2022-08-01T21:33:32.609Z,100.00
2022-08-01T21:36:06.631Z,100.00
2022-08-01T21:38:40.638Z,100.00
2022-08-01T21:41:12.601Z,100.00
2022-08-01T21:43:43.878Z,100.00
2022-08-01T21:46:17.317Z,100.00
2022-08-01T21:48:47.747Z,100.00
2022-08-01T21:51:31.145Z,100.00
2022-08-01T21:54:10.151Z,100.00
2022-08-01T21:56:47.960Z,100.00
2022-08-01T21:59:27.500Z,100.00
2022-08-01T22:02:04.347Z,100.00
2022-08-01T22:04:44.621Z,100.00
2022-08-01T22:07:17.055Z,100.00
2022-08-01T22:09:51.648Z,100.00
2022-08-01T22:12:20.682Z,100.00
2022-08-01T22:14:50.731Z,100.00
2022-08-01T22:17:22.796Z,100.00
2022-08-01T22:20:00.597Z,100.00
2022-08-01T22:22:51.567Z,100.00
2022-08-01T22:25:20.327Z,100.00
2022-08-01T22:28:07.749Z,100.00
2022-08-01T22:30:42.145Z,100.00
2022-08-01T22:33:16.657Z,100.00
2022-08-01T22:35:47.663Z,100.00
2022-08-01T22:38:24.690Z,100.00
2022-08-01T22:40:54.561Z,100.00
2022-08-01T22:43:27.838Z,100.00
2022-08-01T22:46:21.291Z,100.00
2022-08-01T22:48:54.049Z,100.00
2022-08-01T22:51:33.921Z,100.00
2022-08-01T22:54:08.410Z,100.00
2022-08-01T22:56:40.417Z,100.00
2022-08-01T22:59:13.806Z,100.00
2022-08-01T23:01:50.511Z,100.00
2022-08-01T23:04:34.697Z,100.00
2022-08-01T23:07:09.296Z,100.00
2022-08-01T23:09:54.086Z,100.00
2022-08-01T23:12:24.796Z,100.00
2022-08-01T23:14:55.640Z,100.00
2022-08-01T23:17:26.971Z,100.00
2022-08-01T23:20:00.446Z,100.00
2022-08-01T23:22:31.496Z,100.00
2022-08-01T23:25:07.070Z,100.00
2022-08-01T23:27:51.689Z,100.00
2022-08-01T23:30:29.730Z,100.00
2022-08-01T23:32:58.173Z,100.00
2022-08-01T23:35:27.220Z,100.00
2022-08-01T23:37:58.602Z,100.00
2022-08-01T23:40:33.645Z,100.00
2022-08-01T23:43:05.750Z,100.00
2022-08-01T23:46:04.532Z,100.00
2022-08-01T23:48:33.545Z,100.00
2022-08-01T23:51:04.347Z,100.00
2022-08-01T23:53:33.913Z,100.00
2022-08-01T23:56:05.930Z,100.00
2022-08-01T23:58:34.192Z,100.00
